Time;durP1;ratioP1;P1;durP2;ratioP2;P2;SDS_P1;SDS_P2;PMS_P1;PMS_P2;Temp;Humidity;BMP_temperature;BMP_pressure;BME280_temperature;BME280_humidity;BME280_pressure;Samples;Min_cycle;Max_cycle;Signal;HPM_P1;HPM_P2
2023/08/20 00:02:02;;;;;;;9.83;8.80;;;19.70;99.90;;;;;;5077420;28;20469;-64
2023/08/20 00:04:31;;;;;;;16.60;9.37;;;19.70;99.90;;;;;;5077751;28;20461;-64
2023/08/20 00:06:59;;;;;;;10.20;9.20;;;19.70;99.90;;;;;;5077140;28;20493;-64
2023/08/20 00:09:27;;;;;;;11.23;9.80;;;19.80;99.90;;;;;;5077248;28;20523;-64
2023/08/20 00:11:54;;;;;;;10.60;9.20;;;19.70;99.90;;;;;;5077254;28;20462;-64
2023/08/20 00:14:41;;;;;;;16.77;11.43;;;19.70;99.90;;;;;;5077756;28;20461;-64
2023/08/20 00:17:11;;;;;;;12.90;11.70;;;19.70;99.90;;;;;;5077243;28;20461;-64
2023/08/20 00:19:39;;;;;;;16.23;12.83;;;19.70;94.40;;;;;;5077377;28;20461;-64
2023/08/20 00:22:06;;;;;;;15.70;14.00;;;19.60;99.90;;;;;;5077154;28;20461;-64
2023/08/20 00:24:34;;;;;;;17.10;14.27;;;19.60;99.90;;;;;;5077590;28;20551;-64
2023/08/20 00:27:01;;;;;;;20.67;13.43;;;19.50;99.90;;;;;;5077065;28;20489;-64
2023/08/20 00:29:28;;;;;;;15.60;14.10;;;19.50;99.90;;;;;;5077510;28;20556;-64
2023/08/20 00:31:55;;;;;;;14.37;12.87;;;19.50;99.90;;;;;;5077632;28;20457;-64
2023/08/20 00:34:24;;;;;;;15.67;13.70;;;19.40;99.90;;;;;;5076193;28;20497;-64
2023/08/20 00:36:51;;;;;;;15.50;13.90;;;19.40;99.90;;;;;;5077194;28;20748;-64
2023/08/20 00:39:18;;;;;;;13.67;12.37;;;19.40;99.90;;;;;;5077269;28;20463;-64
2023/08/20 00:41:45;;;;;;;13.00;11.33;;;19.40;99.90;;;;;;5077217;28;20461;-64
2023/08/20 00:44:12;;;;;;;15.97;12.90;;;19.40;99.90;;;;;;5076878;28;20483;-64
2023/08/20 00:46:40;;;;;;;13.10;11.90;;;19.40;99.90;;;;;;5077621;28;20489;-64
2023/08/20 00:49:07;;;;;;;13.00;11.80;;;19.40;99.90;;;;;;5076448;28;20462;-64
2023/08/20 00:51:37;;;;;;;13.37;12.00;;;19.40;99.90;;;;;;5077126;28;20924;-64
2023/08/20 00:54:04;;;;;;;14.47;13.00;;;19.40;99.90;;;;;;5076461;28;20552;-64
2023/08/20 00:56:32;;;;;;;13.93;12.63;;;19.40;99.90;;;;;;5076636;28;20457;-64
2023/08/20 00:58:59;;;;;;;14.47;13.07;;;19.40;99.90;;;;;;5073059;28;20458;-64
2023/08/20 01:01:27;;;;;;;13.63;12.30;;;19.40;99.90;;;;;;5076214;28;20485;-64
2023/08/20 01:03:54;;;;;;;16.67;13.00;;;19.40;99.90;;;;;;5077008;28;20826;-64
2023/08/20 01:06:25;;;;;;;14.07;12.67;;;19.30;99.90;;;;;;5077030;28;20499;-64
2023/08/20 01:08:59;;;;;;;14.40;13.00;;;19.30;99.90;;;;;;5076590;28;20468;-63
2023/08/20 01:11:34;;;;;;;14.60;13.20;;;19.20;99.90;;;;;;5076520;28;20459;-64
2023/08/20 01:14:02;;;;;;;14.77;13.43;;;19.10;99.90;;;;;;5076912;28;20465;-64
2023/08/20 01:16:29;;;;;;;14.20;12.80;;;19.10;99.90;;;;;;5077434;28;20858;-64
2023/08/20 01:18:56;;;;;;;16.33;13.60;;;19.10;99.90;;;;;;5080372;28;20811;-64
2023/08/20 01:21:38;;;;;;;16.40;14.67;;;19.10;99.90;;;;;;5080485;28;20556;-64
2023/08/20 01:24:24;;;;;;;18.17;16.47;;;19.10;99.90;;;;;;5080645;28;20467;-64
2023/08/20 01:27:05;;;;;;;18.67;16.87;;;19.00;99.90;;;;;;5081039;28;20495;-63
2023/08/20 01:29:34;;;;;;;16.37;14.93;;;19.00;99.90;;;;;;5079987;28;20457;-64
2023/08/20 01:32:02;;;;;;;17.33;15.60;;;19.00;99.90;;;;;;5080438;28;20479;-63
2023/08/20 01:34:30;;;;;;;17.13;15.57;;;18.90;99.90;;;;;;5079289;28;20589;-64
2023/08/20 01:36:57;;;;;;;18.37;13.43;;;18.90;99.90;;;;;;5080567;28;20964;-64
2023/08/20 01:39:24;;;;;;;15.80;13.93;;;19.00;99.90;;;;;;5080129;28;20461;-64
2023/08/20 01:41:51;;;;;;;17.67;14.37;;;18.90;99.90;;;;;;5080778;28;20464;-64
2023/08/20 01:44:18;;;;;;;15.23;13.67;;;18.90;99.90;;;;;;5080482;28;20555;-64
2023/08/20 01:46:47;;;;;;;15.37;13.80;;;19.00;99.90;;;;;;5080626;28;20493;-64
2023/08/20 01:49:14;;;;;;;16.40;14.80;;;18.90;99.90;;;;;;5080181;28;20772;-63
2023/08/20 01:51:41;;;;;;;17.13;15.60;;;19.00;99.90;;;;;;5079392;28;20460;-63
2023/08/20 01:54:08;;;;;;;15.77;13.30;;;18.90;99.90;;;;;;5080445;28;20464;-64
2023/08/20 01:56:35;;;;;;;16.33;14.83;;;18.90;99.90;;;;;;5080406;28;20899;-64
2023/08/20 01:59:03;;;;;;;16.77;15.10;;;18.80;99.90;;;;;;5079959;28;20461;-64
2023/08/20 02:01:30;;;;;;;16.60;14.90;;;18.80;99.90;;;;;;5079544;28;20461;-64
2023/08/20 02:03:58;;;;;;;16.33;14.93;;;18.80;99.90;;;;;;5078570;28;20465;-63
2023/08/20 02:06:25;;;;;;;16.40;14.80;;;18.80;99.90;;;;;;5078467;28;20492;-61
2023/08/20 02:08:53;;;;;;;17.17;15.17;;;18.80;99.90;;;;;;5079697;28;20881;-63
2023/08/20 02:11:20;;;;;;;15.30;13.80;;;18.80;99.90;;;;;;5078933;28;20458;-64
2023/08/20 02:13:47;;;;;;;15.03;13.27;;;18.90;99.90;;;;;;5079311;28;20493;-64
2023/08/20 02:16:16;;;;;;;15.80;14.33;;;18.90;99.90;;;;;;5079441;28;20489;-64
2023/08/20 02:18:43;;;;;;;15.53;13.90;;;18.90;99.90;;;;;;5078964;28;20465;-64
2023/08/20 02:21:11;;;;;;;17.40;13.73;;;18.90;99.90;;;;;;5078955;28;20456;-64
2023/08/20 02:23:39;;;;;;;15.40;13.90;;;18.90;99.90;;;;;;5079653;28;20760;-64
2023/08/20 02:26:06;;;;;;;14.73;13.27;;;18.80;99.90;;;;;;5079901;28;20575;-64
2023/08/20 02:28:33;;;;;;;14.90;13.50;;;18.80;99.90;;;;;;5079076;28;20461;-64
2023/08/20 02:31:05;;;;;;;14.23;12.80;;;18.90;99.90;;;;;;5079801;28;20895;-64
2023/08/20 02:33:32;;;;;;;14.87;13.27;;;19.00;99.90;;;;;;5079016;28;20492;-64
2023/08/20 02:36:03;;;;;;;14.07;12.77;;;19.00;99.90;;;;;;5074631;28;20465;-64
2023/08/20 02:38:32;;;;;;;14.37;12.87;;;19.10;99.90;;;;;;5079738;28;20890;-64
2023/08/20 02:40:59;;;;;;;13.87;12.47;;;19.10;99.90;;;;;;5079348;28;20459;-64
2023/08/20 02:43:26;;;;;;;13.57;12.30;;;19.00;99.90;;;;;;5078998;28;20465;-64
2023/08/20 02:45:53;;;;;;;12.90;11.77;;;19.10;99.90;;;;;;5079264;28;20457;-64
2023/08/20 02:48:20;;;;;;;12.07;10.77;;;19.00;99.90;;;;;;5079058;28;20560;-63
2023/08/20 02:50:48;;;;;;;13.80;10.20;;;19.10;99.90;;;;;;5079549;28;20754;-64
2023/08/20 02:53:15;;;;;;;12.50;11.13;;;19.00;99.90;;;;;;5078403;28;20461;-64
2023/08/20 02:55:43;;;;;;;10.67;9.63;;;19.00;99.90;;;;;;5079475;28;20454;-64
2023/08/20 02:58:11;;;;;;;15.77;10.27;;;19.00;99.90;;;;;;5079180;28;20900;-64
2023/08/20 03:00:38;;;;;;;11.23;10.13;;;19.00;99.90;;;;;;5078726;28;20457;-64
2023/08/20 03:03:07;;;;;;;11.93;10.43;;;18.90;99.90;;;;;;5078285;28;20548;-63
2023/08/20 03:05:35;;;;;;;12.00;10.83;;;19.00;99.90;;;;;;5078488;28;20486;-64
2023/08/20 03:08:03;;;;;;;11.97;10.63;;;19.10;99.90;;;;;;5079299;28;20493;-64
2023/08/20 03:10:31;;;;;;;11.87;10.67;;;19.10;99.90;;;;;;5079459;28;20906;-64
2023/08/20 03:12:59;;;;;;;13.30;11.37;;;19.10;99.90;;;;;;5078822;28;20468;-64
2023/08/20 03:15:27;;;;;;;10.30;9.40;;;19.10;99.90;;;;;;5078464;28;20904;-64
2023/08/20 03:17:54;;;;;;;15.70;10.43;;;19.10;99.90;;;;;;5078884;28;20871;-64
2023/08/20 03:20:22;;;;;;;12.00;10.80;;;19.00;99.90;;;;;;5077806;28;20461;-64
2023/08/20 03:22:49;;;;;;;13.03;11.00;;;19.00;99.90;;;;;;5067259;28;20771;-64
2023/08/20 03:25:16;;;;;;;11.67;10.47;;;18.90;99.90;;;;;;5066663;28;20461;-64
2023/08/20 03:27:44;;;;;;;13.43;12.13;;;18.90;99.90;;;;;;5078410;28;20996;-64
2023/08/20 03:30:13;;;;;;;13.83;12.53;;;18.80;99.90;;;;;;5078746;28;20908;-64
2023/08/20 03:32:40;;;;;;;12.30;11.20;;;18.80;99.90;;;;;;5078711;28;20893;-64
2023/08/20 03:35:08;;;;;;;14.80;13.33;;;18.80;99.90;;;;;;5077685;28;20764;-64
2023/08/20 03:37:35;;;;;;;14.03;12.77;;;18.70;99.90;;;;;;5078578;28;20453;-64
2023/08/20 03:40:04;;;;;;;14.80;13.30;;;18.80;99.90;;;;;;5077640;28;20560;-64
2023/08/20 03:42:31;;;;;;;13.77;12.47;;;18.80;99.90;;;;;;5078344;28;20461;-64
2023/08/20 03:44:59;;;;;;;15.50;13.90;;;18.80;99.90;;;;;;5078013;28;20449;-64
2023/08/20 03:47:27;;;;;;;18.53;13.90;;;18.80;99.90;;;;;;5077566;28;20496;-64
2023/08/20 03:49:55;;;;;;;17.00;13.57;;;18.80;99.90;;;;;;5077975;28;20475;-64
2023/08/20 03:52:22;;;;;;;15.40;12.57;;;18.80;99.90;;;;;;5078344;28;20457;-64
2023/08/20 03:54:50;;;;;;;14.00;12.63;;;18.80;99.90;;;;;;5078275;28;20465;-64
2023/08/20 03:57:17;;;;;;;13.17;11.97;;;18.90;99.90;;;;;;5077178;28;20470;-64
2023/08/20 03:59:45;;;;;;;11.47;10.27;;;18.90;99.90;;;;;;5077445;28;20476;-64
2023/08/20 04:02:12;;;;;;;11.97;10.83;;;19.00;99.90;;;;;;5078062;28;20937;-64
2023/08/20 04:04:40;;;;;;;13.10;10.20;;;19.00;99.90;;;;;;5078032;28;20459;-64
2023/08/20 04:07:08;;;;;;;13.73;11.90;;;19.00;99.90;;;;;;5077366;28;20489;-64
2023/08/20 04:09:36;;;;;;;21.43;11.90;;;19.00;99.90;;;;;;5077737;28;20518;-64
2023/08/20 04:12:04;;;;;;;11.27;10.17;;;18.90;99.90;;;;;;5077318;28;20802;-64
2023/08/20 04:14:32;;;;;;;11.20;10.13;;;18.90;99.90;;;;;;5077719;28;20492;-64
2023/08/20 04:16:59;;;;;;;11.93;10.83;;;18.80;99.90;;;;;;5076840;28;20867;-63
2023/08/20 04:19:26;;;;;;;11.20;10.00;;;18.80;99.90;;;;;;5076853;28;20487;-64
2023/08/20 04:21:54;;;;;;;12.67;11.37;;;18.80;99.90;;;;;;5077602;28;20483;-64
2023/08/20 04:24:22;;;;;;;12.90;11.60;;;18.80;99.90;;;;;;5077525;28;20465;-64
2023/08/20 04:26:49;;;;;;;12.83;10.70;;;18.70;99.90;;;;;;5077222;28;20775;-64
2023/08/20 04:29:16;;;;;;;11.97;10.77;;;18.60;99.90;;;;;;5076244;28;20469;-64
2023/08/20 04:31:43;;;;;;;12.80;11.50;;;18.60;99.90;;;;;;5076975;28;20465;-64
2023/08/20 04:34:11;;;;;;;11.90;10.70;;;18.60;99.90;;;;;;5076867;28;20792;-64
2023/08/20 04:36:38;;;;;;;11.70;10.50;;;18.50;99.90;;;;;;5077114;28;20748;-64
2023/08/20 04:39:06;;;;;;;16.57;11.60;;;18.40;99.90;;;;;;5076300;28;20453;-64
2023/08/20 04:41:33;;;;;;;12.63;11.53;;;18.40;99.90;;;;;;5077477;28;20453;-64
2023/08/20 04:44:00;;;;;;;13.80;10.73;;;18.40;99.90;;;;;;5077082;28;20461;-64
2023/08/20 04:46:28;;;;;;;14.70;12.30;;;18.40;99.90;;;;;;5077798;28;20459;-64
2023/08/20 04:48:55;;;;;;;14.67;12.60;;;18.40;99.90;;;;;;5076144;28;20523;-65
2023/08/20 04:51:23;;;;;;;13.93;12.77;;;18.40;99.90;;;;;;5076161;28;20555;-64
2023/08/20 04:53:50;;;;;;;13.17;11.80;;;18.40;99.90;;;;;;5077271;28;20564;-64
2023/08/20 04:56:18;;;;;;;14.73;12.73;;;18.50;99.90;;;;;;5077382;28;20461;-64
2023/08/20 04:58:46;;;;;;;13.30;11.90;;;18.50;99.90;;;;;;5076862;28;20552;-64
2023/08/20 05:01:13;;;;;;;17.73;10.20;;;18.50;99.90;;;;;;5076882;28;20753;-64
2023/08/20 05:03:41;;;;;;;11.33;10.33;;;18.50;99.90;;;;;;5077068;28;20462;-64
2023/08/20 05:06:08;;;;;;;11.80;10.70;;;18.50;99.90;;;;;;5077063;28;20893;-65
2023/08/20 05:08:35;;;;;;;12.00;10.80;;;18.60;99.90;;;;;;5077030;28;20493;-64
2023/08/20 05:11:03;;;;;;;14.07;12.70;;;18.60;99.90;;;;;;5076460;28;20465;-64
2023/08/20 05:13:31;;;;;;;12.87;11.40;;;18.60;99.90;;;;;;5076788;28;20466;-65
2023/08/20 05:15:58;;;;;;;11.93;10.83;;;18.60;99.90;;;;;;5076766;28;20628;-64
2023/08/20 05:18:26;;;;;;;20.20;13.23;;;18.70;99.90;;;;;;5077067;28;20453;-64
2023/08/20 05:20:53;;;;;;;15.17;13.57;;;18.70;99.90;;;;;;5075958;28;20469;-64
2023/08/20 05:23:21;;;;;;;15.20;13.60;;;18.80;99.90;;;;;;5076821;28;20754;-64
2023/08/20 05:25:48;;;;;;;15.77;14.00;;;18.80;99.90;;;;;;5076350;28;20461;-64
2023/08/20 05:28:15;;;;;;;14.50;13.10;;;18.80;99.90;;;;;;5076264;28;20480;-64
2023/08/20 05:30:43;;;;;;;15.90;14.23;;;18.80;99.90;;;;;;5076749;28;20461;-64
2023/08/20 05:33:10;;;;;;;16.20;14.60;;;18.80;99.90;;;;;;5076270;28;20466;-64
2023/08/20 05:35:38;;;;;;;14.63;13.33;;;18.80;99.90;;;;;;5076817;28;20553;-65
2023/08/20 05:38:05;;;;;;;20.43;14.67;;;18.80;99.90;;;;;;5076281;28;20457;-64
2023/08/20 05:40:32;;;;;;;17.40;15.63;;;18.90;99.90;;;;;;5075830;28;20465;-64
2023/08/20 05:42:59;;;;;;;17.87;16.10;;;18.90;99.90;;;;;;5079143;28;20463;-65
2023/08/20 05:45:26;;;;;;;22.40;16.90;;;19.00;99.90;;;;;;5076668;28;20756;-64
2023/08/20 05:47:56;;;;;;;19.17;17.27;;;19.10;99.90;;;;;;5076225;28;20508;-64
2023/08/20 05:50:24;;;;;;;19.83;17.93;;;19.10;99.90;;;;;;5076284;28;20465;-65
2023/08/20 05:52:51;;;;;;;21.30;19.10;;;19.30;99.90;;;;;;5076167;28;20480;-65
2023/08/20 05:55:18;;;;;;;21.53;19.53;;;19.40;99.90;;;;;;5076452;28;20463;-65
2023/08/20 05:57:46;;;;;;;20.37;17.97;;;19.50;99.90;;;;;;5076547;28;20751;-65
2023/08/20 06:00:13;;;;;;;19.67;17.80;;;19.60;99.90;;;;;;5076156;28;20467;-65
2023/08/20 06:02:40;;;;;;;21.70;19.70;;;19.60;99.90;;;;;;5076911;28;20480;-65
2023/08/20 06:05:10;;;;;;;21.93;19.73;;;19.70;99.90;;;;;;5078741;28;20920;-65
2023/08/20 06:07:37;;;;;;;20.97;18.87;;;19.90;99.90;;;;;;5080514;28;20493;-65
2023/08/20 06:10:05;;;;;;;19.30;17.60;;;19.90;99.90;;;;;;5079383;28;20473;-65
2023/08/20 06:12:32;;;;;;;19.70;17.37;;;20.00;99.90;;;;;;5065932;28;20457;-65
2023/08/20 06:14:59;;;;;;;17.70;16.00;;;20.00;99.90;;;;;;5079842;28;20804;-65
2023/08/20 06:17:27;;;;;;;18.40;16.80;;;19.90;99.90;;;;;;5079943;28;20485;-65
2023/08/20 06:19:54;;;;;;;19.60;17.70;;;19.90;99.90;;;;;;5079971;28;20464;-65
2023/08/20 06:22:22;;;;;;;18.03;16.23;;;20.00;99.90;;;;;;5079903;28;20453;-64
2023/08/20 06:24:50;;;;;;;15.77;14.13;;;20.10;99.90;;;;;;5078981;28;20479;-65
2023/08/20 06:27:17;;;;;;;15.67;14.20;;;20.20;99.90;;;;;;5078947;28;20493;-65
2023/08/20 06:29:44;;;;;;;16.70;15.00;;;20.30;99.90;;;;;;5080179;28;20463;-65
2023/08/20 06:32:11;;;;;;;15.70;13.67;;;20.50;99.90;;;;;;5078836;28;20882;-65
2023/08/20 06:34:38;;;;;;;15.93;14.30;;;20.60;99.90;;;;;;5078815;28;20492;-65
2023/08/20 06:37:05;;;;;;;16.53;14.93;;;20.70;99.90;;;;;;5078507;28;20557;-65
2023/08/20 06:39:34;;;;;;;14.90;13.40;;;20.90;99.90;;;;;;5079518;28;20548;-65
2023/08/20 06:42:02;;;;;;;16.20;14.50;;;21.10;99.90;;;;;;5079213;28;20970;-65
2023/08/20 06:44:29;;;;;;;15.03;13.73;;;21.30;99.90;;;;;;5078940;28;20461;-65
2023/08/20 06:46:56;;;;;;;15.60;14.10;;;21.50;99.90;;;;;;5079304;28;20555;-65
2023/08/20 06:49:23;;;;;;;16.90;14.10;;;21.70;99.90;;;;;;5079155;28;20493;-65
2023/08/20 06:51:50;;;;;;;16.70;12.90;;;21.70;1.00;;;;;;5078512;28;20902;-65
2023/08/20 06:54:17;;;;;;;13.37;12.17;;;22.00;99.90;;;;;;5078764;28;20461;-65
2023/08/20 06:56:46;;;;;;;13.83;12.50;;;22.10;1.00;;;;;;5079153;28;20497;-65
2023/08/20 06:59:13;;;;;;;15.37;13.97;;;22.30;1.00;;;;;;5078908;28;20916;-65
2023/08/20 07:01:40;;;;;;;14.43;13.13;;;22.20;99.90;;;;;;5078429;28;20929;-65
2023/08/20 07:04:07;;;;;;;14.13;12.73;;;22.40;45.00;;;;;;5078360;28;20880;-65
2023/08/20 07:06:35;;;;;;;14.17;12.87;;;22.60;99.90;;;;;;5079067;28;20555;-65
2023/08/20 07:09:03;;;;;;;14.07;12.80;;;22.40;99.90;;;;;;5079141;28;20488;-65
2023/08/20 07:11:31;;;;;;;14.30;12.10;;;22.40;99.90;;;;;;5078902;28;20462;-65
2023/08/20 07:13:59;;;;;;;13.63;12.17;;;22.50;99.90;;;;;;5078126;28;20917;-65
2023/08/20 07:16:26;;;;;;;13.13;11.90;;;23.00;99.90;;;;;;5077989;28;20552;-64
2023/08/20 07:18:54;;;;;;;11.20;10.20;;;23.30;1.00;;;;;;5077894;28;20457;-65
2023/08/20 07:21:21;;;;;;;11.70;10.53;;;23.50;99.90;;;;;;5078503;28;20757;-65
2023/08/20 07:23:50;;;;;;;12.20;11.13;;;23.70;26.60;;;;;;5077864;28;20493;-65
2023/08/20 07:26:17;;;;;;;12.60;11.30;;;23.90;1.00;;;;;;5077254;28;20450;-65
2023/08/20 07:28:57;;;;;;;11.57;10.37;;;24.10;99.90;;;;;;5077561;28;20932;-65
2023/08/20 07:31:27;;;;;;;11.43;10.43;;;24.40;99.90;;;;;;5078154;28;20936;-64
2023/08/20 07:33:56;;;;;;;11.23;10.30;;;24.70;99.90;;;;;;5058535;28;20497;-65
2023/08/20 07:36:23;;;;;;;11.30;10.20;;;24.80;12.20;;;;;;5058775;28;20891;-65
2023/08/20 07:38:51;;;;;;;12.40;9.73;;;25.00;99.90;;;;;;5058373;28;20504;-65
2023/08/20 07:41:20;;;;;;;10.57;9.67;;;25.20;99.90;;;;;;5058131;28;20562;-65
2023/08/20 07:43:48;;;;;;;12.20;11.00;;;25.40;1.00;;;;;;5072860;28;20514;-65
2023/08/20 07:46:16;;;;;;;10.13;9.20;;;25.60;99.90;;;;;;5077535;28;20471;-65
2023/08/20 07:48:45;;;;;;;10.17;9.27;;;25.90;1.00;;;;;;5078587;28;20490;-65
2023/08/20 07:51:14;;;;;;;10.93;9.90;;;26.00;29.80;;;;;;5078169;28;20458;-65
2023/08/20 07:53:41;;;;;;;10.27;9.27;;;25.90;99.90;;;;;;5077038;28;20464;-65
2023/08/20 07:56:08;;;;;;;12.50;9.13;;;25.80;1.00;;;;;;5078055;28;20500;-65
2023/08/20 07:58:36;;;;;;;10.00;9.20;;;26.20;1.00;;;;;;5077911;28;20877;-65
2023/08/20 08:01:03;;;;;;;8.33;7.50;;;26.40;99.90;;;;;;5077573;28;20461;-65
2023/08/20 08:03:30;;;;;;;8.83;8.03;;;26.70;99.90;;;;;;5077347;28;20467;-65
2023/08/20 08:05:59;;;;;;;7.67;6.90;;;26.80;1.00;;;;;;5076650;28;20564;-65
2023/08/20 08:08:26;;;;;;;7.47;6.80;;;27.10;1.00;;;;;;5077935;28;20532;-65
2023/08/20 08:10:54;;;;;;;7.77;7.07;;;27.40;99.90;;;;;;5077656;28;20950;-65
2023/08/20 08:13:23;;;;;;;8.03;6.47;;;27.20;99.90;;;;;;5077797;28;20453;-63
2023/08/20 08:15:51;;;;;;;6.43;5.80;;;27.00;99.90;;;;;;5076474;28;20461;-62
2023/08/20 08:18:18;;;;;;;7.17;5.23;;;26.70;64.50;;;;;;5077973;28;20454;-62
2023/08/20 08:20:46;;;;;;;5.73;4.57;;;27.20;99.90;;;;;;5077304;28;20468;-62
2023/08/20 08:23:14;;;;;;;4.93;4.27;;;27.70;99.90;;;;;;5077249;28;20457;-62
2023/08/20 08:25:42;;;;;;;8.80;4.87;;;27.90;99.90;;;;;;5076700;28;20548;-62
2023/08/20 08:28:09;;;;;;;6.70;4.83;;;28.20;99.90;;;;;;5075800;28;20831;-62
2023/08/20 08:30:38;;;;;;;4.67;4.27;;;28.30;94.00;;;;;;5076105;28;20469;-63
2023/08/20 08:33:06;;;;;;;5.43;4.90;;;28.20;99.90;;;;;;5076880;28;20462;-62
2023/08/20 08:35:33;;;;;;;5.23;4.37;;;28.50;99.90;;;;;;5077552;28;20461;-63
2023/08/20 08:38:01;;;;;;;5.10;4.40;;;28.70;99.90;;;;;;5077577;28;20552;-62
2023/08/20 08:40:30;;;;;;;6.63;5.93;;;29.00;99.90;;;;;;5076589;28;20469;-63
2023/08/20 08:42:58;;;;;;;5.47;5.07;;;29.20;99.90;;;;;;5076980;28;20461;-62
2023/08/20 08:45:27;;;;;;;8.23;4.93;;;29.40;99.90;;;;;;5077380;28;20485;-62
2023/08/20 08:47:55;;;;;;;5.40;4.90;;;29.50;81.30;;;;;;5077358;28;20535;-63
2023/08/20 08:50:23;;;;;;;5.77;4.93;;;29.60;99.90;;;;;;5077234;28;20525;-62
2023/08/20 08:52:54;;;;;;;5.63;5.13;;;29.80;1.00;;;;;;5076686;28;20484;-62
2023/08/20 08:55:22;;;;;;;5.97;5.47;;;29.90;4.70;;;;;;5077017;28;20896;-62
2023/08/20 08:57:50;;;;;;;5.43;5.00;;;30.00;1.00;;;;;;5073540;28;20482;-62
2023/08/20 09:00:18;;;;;;;5.33;4.83;;;30.10;1.00;;;;;;5076080;28;20472;-63
2023/08/20 09:02:45;;;;;;;7.83;6.20;;;30.30;1.00;;;;;;5075807;28;20461;-63
2023/08/20 09:05:15;;;;;;;5.20;4.70;;;30.50;1.00;;;;;;5076106;28;20551;-63
2023/08/20 09:07:44;;;;;;;6.23;5.10;;;30.60;1.00;;;;;;5071221;28;20464;-62
2023/08/20 09:10:12;;;;;;;6.83;5.67;;;30.60;1.00;;;;;;5073192;28;20492;-62
2023/08/20 09:12:39;;;;;;;5.00;4.60;;;30.70;1.00;;;;;;5074510;28;20488;-62
2023/08/20 09:15:13;;;;;;;5.43;4.93;;;30.90;1.00;;;;;;5074754;28;20449;-62
2023/08/20 09:17:42;;;;;;;6.73;4.73;;;31.10;1.00;;;;;;5074966;28;20967;-62
2023/08/20 09:20:10;;;;;;;5.50;5.00;;;31.20;1.00;;;;;;5075074;28;20555;-62
2023/08/20 09:22:38;;;;;;;5.87;5.37;;;30.80;99.90;;;;;;5074486;28;20558;-62
2023/08/20 09:25:06;;;;;;;5.60;5.13;;;30.60;99.90;;;;;;5075558;28;20803;-62
2023/08/20 09:27:41;;;;;;;5.77;4.70;;;30.80;99.90;;;;;;5075834;28;20463;-62
2023/08/20 09:30:10;;;;;;;6.40;5.33;;;31.00;99.90;;;;;;5076375;28;20928;-62
2023/08/20 09:32:39;;;;;;;6.00;5.40;;;30.30;99.90;;;;;;5074566;28;20464;-62
2023/08/20 09:35:06;;;;;;;6.00;5.50;;;29.00;99.90;;;;;;5074786;28;21032;-62
2023/08/20 09:37:35;;;;;;;6.90;6.20;;;28.90;99.90;;;;;;5073539;28;20457;-62
2023/08/20 09:40:02;;;;;;;6.07;5.63;;;28.40;99.90;;;;;;5078775;28;20452;-62
2023/08/20 09:42:32;;;;;;;6.17;5.57;;;28.00;99.90;;;;;;5079797;28;20488;-62
2023/08/20 09:45:03;;;;;;;6.70;5.87;;;28.70;1.00;;;;;;5079557;28;20465;-61
2023/08/20 09:47:34;;;;;;;6.00;5.50;;;27.90;1.00;;;;;;5080454;28;20464;-61
2023/08/20 09:50:05;;;;;;;6.43;5.83;;;27.30;1.00;;;;;;5079335;28;20498;-62
2023/08/20 09:52:41;;;;;;;6.20;5.60;;;27.50;1.00;;;;;;5076597;28;20472;-61
2023/08/20 09:55:10;;;;;;;5.87;5.37;;;27.60;1.00;;;;;;5078445;28;20547;-61
2023/08/20 09:57:39;;;;;;;5.97;5.50;;;28.10;1.00;;;;;;5078652;28;20966;-61
2023/08/20 10:00:09;;;;;;;6.60;6.10;;;27.60;1.00;;;;;;5078854;28;20536;-61
2023/08/20 10:02:37;;;;;;;6.07;5.43;;;27.40;1.00;;;;;;5079345;28;20453;-61
2023/08/20 10:05:08;;;;;;;6.27;5.60;;;27.70;1.00;;;;;;5075149;28;20492;-62
2023/08/20 10:07:36;;;;;;;5.97;5.47;;;28.40;1.00;;;;;;5075885;28;20485;-62
2023/08/20 10:10:05;;;;;;;8.00;5.73;;;29.20;1.00;;;;;;5077295;28;20493;-61
2023/08/20 10:12:34;;;;;;;6.40;5.80;;;29.80;99.90;;;;;;5076130;28;20503;-62
2023/08/20 10:15:02;;;;;;;5.80;5.20;;;29.40;99.90;;;;;;5075722;28;20468;-61
2023/08/20 10:17:31;;;;;;;6.93;6.43;;;29.00;99.90;;;;;;5078359;28;20754;-61
2023/08/20 10:20:00;;;;;;;5.93;5.43;;;28.70;99.90;;;;;;5078724;28;20489;-61
2023/08/20 10:22:37;;;;;;;6.50;5.73;;;28.40;99.90;;;;;;5079958;28;20471;-61
2023/08/20 10:25:07;;;;;;;5.90;5.40;;;27.70;99.90;;;;;;5075695;28;20468;-61
2023/08/20 10:27:36;;;;;;;6.50;5.90;;;28.20;1.00;;;;;;5070022;28;20871;-61
2023/08/20 10:30:15;;;;;;;6.00;5.40;;;28.50;99.90;;;;;;5055989;28;20485;-61
2023/08/20 10:32:47;;;;;;;5.67;5.17;;;28.40;99.90;;;;;;5064361;28;20468;-60
2023/08/20 10:35:16;;;;;;;5.60;5.20;;;28.70;99.90;;;;;;5076106;28;20521;-61
2023/08/20 10:38:07;;;;;;;6.73;5.60;;;28.90;99.90;;;;;;5077031;28;20552;-61
2023/08/20 10:40:53;;;;;;;6.30;5.70;;;28.80;99.90;;;;;;5078074;28;20527;-61
2023/08/20 10:43:30;;;;;;;6.20;5.60;;;29.20;99.90;;;;;;5077285;28;20544;-58
2023/08/20 10:46:16;;;;;;;5.97;5.47;;;28.50;99.90;;;;;;5078544;28;20485;-62
2023/08/20 10:48:47;;;;;;;6.13;5.63;;;27.70;99.90;;;;;;5078943;28;20495;-61
2023/08/20 10:51:15;;;;;;;6.20;5.70;;;27.60;1.00;;;;;;5077968;28;20560;-60
2023/08/20 10:53:49;;;;;;;6.53;6.03;;;27.20;99.90;;;;;;5077622;28;20511;-61
2023/08/20 10:56:20;;;;;;;7.57;5.77;;;27.50;1.00;;;;;;5078706;28;20484;-60
2023/08/20 10:58:48;;;;;;;6.07;5.57;;;28.60;1.00;;;;;;5074449;28;20796;-61
2023/08/20 11:01:18;;;;;;;5.47;4.97;;;29.00;99.90;;;;;;5079183;28;20464;-61
2023/08/20 11:03:47;;;;;;;8.10;7.33;;;29.10;99.90;;;;;;5078784;28;20552;-60
2023/08/20 11:06:15;;;;;;;7.13;6.63;;;28.40;99.90;;;;;;5078604;28;20469;-60
2023/08/20 11:08:45;;;;;;;7.13;6.53;;;28.20;99.90;;;;;;5078726;28;20501;-60
2023/08/20 11:11:13;;;;;;;7.00;6.40;;;27.90;99.90;;;;;;5076207;28;20560;-60
2023/08/20 11:13:42;;;;;;;6.67;6.07;;;28.30;99.90;;;;;;5077745;28;20469;-60
2023/08/20 11:16:10;;;;;;;7.70;7.10;;;28.90;99.90;;;;;;5078524;28;20461;-61
2023/08/20 11:18:38;;;;;;;6.90;6.30;;;29.00;99.90;;;;;;5079218;28;20468;-61
2023/08/20 11:21:05;;;;;;;6.53;5.93;;;29.10;99.90;;;;;;5078685;28;20748;-62
2023/08/20 11:23:33;;;;;;;9.13;6.27;;;29.90;1.00;;;;;;5078851;28;20523;-60
2023/08/20 11:26:03;;;;;;;6.40;5.93;;;30.50;99.90;;;;;;5078431;28;20461;-60
2023/08/20 11:28:30;;;;;;;6.20;5.70;;;29.90;99.90;;;;;;5076979;28;20457;-60
2023/08/20 11:30:58;;;;;;;7.03;5.97;;;28.50;99.90;;;;;;5078280;28;20457;-60
2023/08/20 11:33:27;;;;;;;7.77;7.17;;;27.70;99.90;;;;;;5078381;28;20485;-60
2023/08/20 11:35:56;;;;;;;6.50;5.90;;;27.30;1.00;;;;;;5078421;28;20457;-60
2023/08/20 11:38:25;;;;;;;7.37;6.67;;;27.30;1.00;;;;;;5077767;28;20499;-60
2023/08/20 11:40:53;;;;;;;7.63;6.87;;;27.30;1.00;;;;;;5077651;28;20735;-59
2023/08/20 11:43:24;;;;;;;8.30;5.33;;;27.00;1.00;;;;;;5076985;28;20476;-60
2023/08/20 11:45:51;;;;;;;5.90;5.40;;;27.30;1.00;;;;;;5077452;28;20527;-60
2023/08/20 11:48:18;;;;;;;6.20;5.70;;;28.20;1.00;;;;;;5076363;28;20454;-60
2023/08/20 11:50:48;;;;;;;6.00;5.50;;;28.30;99.90;;;;;;5076935;28;20489;-60
2023/08/20 11:53:16;;;;;;;6.30;5.70;;;28.30;99.90;;;;;;5076740;28;20457;-60
2023/08/20 11:55:43;;;;;;;6.70;6.20;;;28.30;99.90;;;;;;5076462;28;20817;-60
2023/08/20 11:58:12;;;;;;;8.30;6.50;;;28.40;99.90;;;;;;5075721;28;20577;-60
2023/08/20 12:00:43;;;;;;;6.80;6.20;;;28.00;99.90;;;;;;5076403;28;20952;-60
2023/08/20 12:03:11;;;;;;;6.73;6.10;;;28.20;99.90;;;;;;5074281;28;20522;-60
2023/08/20 12:05:42;;;;;;;6.67;6.07;;;27.80;99.90;;;;;;5072889;28;20460;-60
2023/08/20 12:08:15;;;;;;;6.50;5.93;;;27.50;99.90;;;;;;5074960;28;20449;-60
2023/08/20 12:10:44;;;;;;;6.60;5.77;;;27.40;99.90;;;;;;5074797;28;20576;-60
2023/08/20 12:13:12;;;;;;;6.20;5.60;;;27.30;99.90;;;;;;5074757;28;20505;-60
2023/08/20 12:15:41;;;;;;;6.30;5.70;;;27.40;99.90;;;;;;5075744;28;20552;-60
2023/08/20 12:18:10;;;;;;;6.60;6.00;;;27.90;99.90;;;;;;5076293;28;20457;-61
2023/08/20 12:20:37;;;;;;;9.43;8.60;;;28.70;1.00;;;;;;5074943;28;20481;-60
2023/08/20 12:23:07;;;;;;;9.93;8.93;;;28.60;99.90;;;;;;5075160;28;20557;-60
2023/08/20 12:25:36;;;;;;;10.80;9.73;;;28.40;1.00;;;;;;5075134;28;20925;-59
2023/08/20 12:28:05;;;;;;;12.00;10.90;;;27.40;1.00;;;;;;5073243;28;20452;-59
2023/08/20 12:30:33;;;;;;;13.83;12.63;;;26.90;1.00;;;;;;5075369;28;20485;-60
2023/08/20 12:33:03;;;;;;;10.23;9.43;;;26.70;1.00;;;;;;5072497;28;20449;-59
2023/08/20 12:35:32;;;;;;;11.40;10.40;;;26.80;1.00;;;;;;5075289;28;20515;-61
2023/08/20 12:38:00;;;;;;;10.00;9.13;;;27.40;1.00;;;;;;5072904;28;20465;-60
2023/08/20 12:40:27;;;;;;;10.47;9.63;;;27.30;1.00;;;;;;5071294;28;20890;-59
2023/08/20 12:42:54;;;;;;;8.67;7.93;;;27.30;1.00;;;;;;5073150;28;20473;-60